Time;durP1;ratioP1;P1;durP2;ratioP2;P2;SDS_P1;SDS_P2;PMS_P1;PMS_P2;Temp;Humidity;BMP_temperature;BMP_pressure;BME280_temperature;BME280_humidity;BME280_pressure;Samples;Min_cycle;Max_cycle;Signal;HPM_P1;HPM_P2
2021/03/07 00:01:57;;;;;;;6.40;5.07;;;;;;;;;;5036876;28;20191;-48
2021/03/07 00:04:22;;;;;;;6.73;5.50;;;;;;;;;;5040710;28;20198;-50
2021/03/07 00:06:47;;;;;;;7.23;4.93;;;;;;;;;;5025728;28;20285;-48
2021/03/07 00:09:13;;;;;;;6.87;6.00;;;;;;;;;;5039944;28;20877;-48
2021/03/07 00:11:38;;;;;;;7.90;5.97;;;;;;;;;;5024960;28;20216;-49
2021/03/07 00:14:03;;;;;;;6.97;5.63;;;;;;;;;;5043375;28;20217;-48
2021/03/07 00:16:28;;;;;;;10.87;5.57;;;;;;;;;;5031002;28;20216;-50
2021/03/07 00:18:54;;;;;;;9.47;5.97;;;;;;;;;;5044942;28;20828;-48
2021/03/07 00:21:19;;;;;;;11.20;6.53;;;;;;;;;;5040192;28;20612;-54
2021/03/07 00:23:44;;;;;;;10.07;6.63;;;;;;;;;;5044063;28;20192;-49
2021/03/07 00:26:10;;;;;;;8.00;6.77;;;;;;;;;;5044264;28;20229;-48
2021/03/07 00:28:35;;;;;;;8.00;6.67;;;;;;;;;;5048234;28;20188;-50
2021/03/07 00:31:00;;;;;;;7.50;6.13;;;;;;;;;;5043141;28;20710;-47
2021/03/07 00:33:25;;;;;;;9.77;6.20;;;;;;;;;;5032819;28;20188;-48
2021/03/07 00:35:51;;;;;;;10.20;5.77;;;;;;;;;;5023783;28;20324;-48
2021/03/07 00:38:16;;;;;;;11.07;6.07;;;;;;;;;;5040520;28;20722;-48
2021/03/07 00:40:42;;;;;;;7.97;6.07;;;;;;;;;;5040876;28;20243;-49
2021/03/07 00:43:08;;;;;;;9.43;5.90;;;;;;;;;;5041739;28;20225;-48
2021/03/07 00:45:33;;;;;;;10.87;7.03;;;;;;;;;;5042785;28;20252;-51
2021/03/07 00:47:59;;;;;;;7.40;5.90;;;;;;;;;;5027202;28;20576;-50
2021/03/07 00:50:25;;;;;;;8.30;5.90;;;;;;;;;;5033686;28;20626;-49
2021/03/07 00:52:52;;;;;;;6.90;5.73;;;;;;;;;;5039047;28;20186;-47
2021/03/07 00:55:17;;;;;;;6.80;5.67;;;;;;;;;;5043779;28;20205;-49
2021/03/07 00:57:42;;;;;;;13.57;6.30;;;;;;;;;;5040901;28;20592;-49
2021/03/07 01:00:12;;;;;;;8.70;5.70;;;;;;;;;;5040716;28;20213;-51
2021/03/07 01:02:38;;;;;;;9.17;6.33;;;;;;;;;;5027626;28;20202;-49
2021/03/07 01:05:05;;;;;;;8.70;5.93;;;;;;;;;;5044601;28;20222;-49
2021/03/07 01:07:30;;;;;;;9.37;5.50;;;;;;;;;;5040739;28;20186;-47
2021/03/07 01:09:55;;;;;;;13.03;6.00;;;;;;;;;;5039733;28;20200;-48
2021/03/07 01:12:21;;;;;;;10.77;5.83;;;;;;;;;;5034824;28;20186;-48
2021/03/07 01:14:46;;;;;;;6.70;5.37;;;;;;;;;;5039746;28;20213;-49
2021/03/07 01:17:11;;;;;;;8.03;5.63;;;;;;;;;;5041035;28;20701;-49
2021/03/07 01:19:37;;;;;;;9.07;6.03;;;;;;;;;;5038622;28;20210;-50
2021/03/07 01:22:03;;;;;;;7.53;5.90;;;;;;;;;;5039257;28;20260;-49
2021/03/07 01:24:29;;;;;;;9.53;6.30;;;;;;;;;;5042363;28;20251;-48
2021/03/07 01:26:54;;;;;;;7.80;6.30;;;;;;;;;;5046108;28;20171;-49
2021/03/07 01:29:19;;;;;;;8.77;5.93;;;;;;;;;;5038620;28;20834;-49
2021/03/07 01:31:44;;;;;;;9.23;6.10;;;;;;;;;;5029819;28;20714;-50
2021/03/07 01:34:10;;;;;;;8.67;6.17;;;;;;;;;;5044672;28;20186;-48
2021/03/07 01:36:35;;;;;;;8.73;6.40;;;;;;;;;;5044521;28;20586;-49
2021/03/07 01:39:00;;;;;;;9.77;6.60;;;;;;;;;;5044702;28;20190;-48
2021/03/07 01:41:26;;;;;;;7.27;6.20;;;;;;;;;;5043117;28;20225;-47
2021/03/07 01:43:51;;;;;;;10.70;6.37;;;;;;;;;;5039826;28;20189;-47
2021/03/07 01:46:17;;;;;;;7.53;5.50;;;;;;;;;;5050457;28;20202;-49
2021/03/07 01:48:43;;;;;;;9.57;6.30;;;;;;;;;;5047327;28;20190;-47
2021/03/07 01:51:09;;;;;;;7.63;6.53;;;;;;;;;;5045534;28;20214;-48
2021/03/07 01:53:34;;;;;;;7.23;5.40;;;;;;;;;;5055317;28;20233;-47
2021/03/07 01:56:02;;;;;;;8.17;6.13;;;;;;;;;;5049061;28;20283;-46
2021/03/07 01:58:29;;;;;;;6.43;5.47;;;;;;;;;;5043681;28;20190;-48
2021/03/07 02:00:56;;;;;;;9.83;5.53;;;;;;;;;;5046159;28;20685;-50
2021/03/07 02:03:21;;;;;;;8.23;5.33;;;;;;;;;;5047298;28;20194;-47
2021/03/07 02:05:47;;;;;;;8.07;5.57;;;;;;;;;;5051488;28;20231;-54
2021/03/07 02:08:13;;;;;;;6.27;5.63;;;;;;;;;;5044828;28;20684;-49
2021/03/07 02:10:52;;;;;;;7.03;5.90;;;;;;;;;;5028997;28;20213;-48
2021/03/07 02:13:22;;;;;;;8.23;6.53;;;;;;;;;;5046104;28;20193;-49
2021/03/07 02:15:53;;;;;;;12.33;5.67;;;;;;;;;;5030551;28;20206;-47
2021/03/07 02:18:19;;;;;;;9.07;5.87;;;;;;;;;;5042340;28;20700;-47
2021/03/07 02:20:54;;;;;;;8.67;6.10;;;;;;;;;;5039690;28;20224;-50
2021/03/07 02:23:22;;;;;;;8.87;6.37;;;;;;;;;;5046369;28;20255;-46
2021/03/07 02:25:50;;;;;;;8.37;6.27;;;;;;;;;;5023418;28;20214;-47
2021/03/07 02:28:17;;;;;;;8.03;6.63;;;;;;;;;;5031959;28;20226;-49
2021/03/07 02:30:42;;;;;;;7.87;6.20;;;;;;;;;;5045625;28;20225;-47
2021/03/07 02:33:32;;;;;;;8.20;5.97;;;;;;;;;;5054538;28;20554;-48
2021/03/07 02:36:15;;;;;;;7.47;5.77;;;;;;;;;;5023699;28;20657;-49
2021/03/07 02:38:43;;;;;;;8.00;6.20;;;;;;;;;;5042879;28;20682;-49
2021/03/07 02:41:11;;;;;;;7.03;5.53;;;;;;;;;;5045163;28;20194;-48
2021/03/07 02:43:39;;;;;;;7.17;5.37;;;;;;;;;;5042738;28;20202;-49
2021/03/07 02:46:06;;;;;;;5.23;4.73;;;;;;;;;;5037299;28;20212;-49
2021/03/07 02:48:31;;;;;;;8.70;6.57;;;;;;;;;;5046360;28;20559;-48
2021/03/07 02:50:58;;;;;;;11.37;6.70;;;;;;;;;;5045577;28;20205;-48
2021/03/07 02:53:27;;;;;;;9.80;5.70;;;;;;;;;;5046962;28;20198;-48
2021/03/07 02:55:58;;;;;;;8.93;5.83;;;;;;;;;;5051465;28;20799;-47
2021/03/07 02:58:25;;;;;;;10.67;5.33;;;;;;;;;;5029929;28;20225;-47
2021/03/07 03:00:55;;;;;;;9.63;6.23;;;;;;;;;;5043082;28;20544;-47
2021/03/07 03:03:25;;;;;;;8.60;6.10;;;;;;;;;;5045760;28;20198;-48
2021/03/07 03:05:52;;;;;;;10.07;6.23;;;;;;;;;;5043394;28;20217;-47
2021/03/07 03:08:17;;;;;;;10.43;6.10;;;;;;;;;;5031613;28;20240;-48
2021/03/07 03:10:43;;;;;;;9.57;5.87;;;;;;;;;;5052777;28;20214;-47
2021/03/07 03:13:11;;;;;;;9.43;5.63;;;;;;;;;;5042414;28;20202;-47
2021/03/07 03:15:37;;;;;;;8.03;5.87;;;;;;;;;;5045514;28;20297;-48
2021/03/07 03:18:03;;;;;;;12.40;5.70;;;;;;;;;;5048718;28;20281;-47
2021/03/07 03:20:30;;;;;;;7.73;5.53;;;;;;;;;;5047800;28;20190;-48
2021/03/07 03:22:56;;;;;;;8.87;5.67;;;;;;;;;;5043219;28;20584;-47
2021/03/07 03:25:21;;;;;;;7.17;6.00;;;;;;;;;;5042569;28;20820;-48
2021/03/07 03:27:47;;;;;;;8.73;6.07;;;;;;;;;;5046758;28;20194;-47
2021/03/07 03:30:18;;;;;;;10.53;5.33;;;;;;;;;;5055212;28;20208;-49
2021/03/07 03:32:44;;;;;;;7.90;5.20;;;;;;;;;;5039906;28;20190;-48
2021/03/07 03:35:12;;;;;;;7.83;5.27;;;;;;;;;;5025233;28;20222;-49
2021/03/07 03:37:38;;;;;;;8.63;5.77;;;;;;;;;;5046310;28;21583;-48
2021/03/07 03:40:08;;;;;;;9.07;5.77;;;;;;;;;;5046704;28;20261;-47
2021/03/07 03:42:44;;;;;;;10.37;6.30;;;;;;;;;;5035603;28;20682;-48
2021/03/07 03:45:11;;;;;;;7.70;5.77;;;;;;;;;;5040282;28;20213;-49
2021/03/07 03:47:38;;;;;;;8.50;5.77;;;;;;;;;;5040500;28;20200;-49
2021/03/07 03:50:06;;;;;;;7.97;5.87;;;;;;;;;;5029008;28;20226;-52
2021/03/07 03:52:36;;;;;;;9.87;6.13;;;;;;;;;;5039770;28;20182;-50
2021/03/07 03:55:14;;;;;;;8.33;6.27;;;;;;;;;;5042524;28;20207;-50
2021/03/07 03:57:41;;;;;;;10.03;6.60;;;;;;;;;;5040059;28;20186;-48
2021/03/07 04:00:09;;;;;;;11.17;6.33;;;;;;;;;;5045726;28;20194;-46
2021/03/07 04:02:36;;;;;;;7.23;6.43;;;;;;;;;;5038962;28;20205;-47
2021/03/07 04:05:05;;;;;;;8.83;6.47;;;;;;;;;;5040756;28;20205;-48
2021/03/07 04:07:31;;;;;;;9.53;7.00;;;;;;;;;;5037556;28;20550;-46
2021/03/07 04:09:57;;;;;;;12.23;6.93;;;;;;;;;;5036949;28;20248;-47
2021/03/07 04:12:23;;;;;;;10.47;7.40;;;;;;;;;;5044899;28;20225;-49
2021/03/07 04:14:49;;;;;;;11.00;7.60;;;;;;;;;;5040492;28;20240;-49
2021/03/07 04:17:21;;;;;;;10.37;7.80;;;;;;;;;;5022850;28;20193;-47
2021/03/07 04:19:50;;;;;;;8.70;6.97;;;;;;;;;;5042966;28;20204;-48
2021/03/07 04:22:16;;;;;;;10.07;7.60;;;;;;;;;;5042823;28;20218;-47
2021/03/07 04:24:42;;;;;;;10.17;7.40;;;;;;;;;;5039227;28;20213;-47
2021/03/07 04:27:08;;;;;;;8.67;7.30;;;;;;;;;;5040938;28;20202;-47
2021/03/07 04:29:36;;;;;;;9.77;7.70;;;;;;;;;;5042778;28;20685;-50
2021/03/07 04:32:03;;;;;;;9.80;7.60;;;;;;;;;;5034259;28;20217;-48
2021/03/07 04:34:28;;;;;;;9.37;7.27;;;;;;;;;;5052343;28;20197;-49
2021/03/07 04:36:54;;;;;;;10.47;7.37;;;;;;;;;;5021462;28;20194;-48
2021/03/07 04:39:20;;;;;;;8.73;6.63;;;;;;;;;;5022704;28;20186;-47
2021/03/07 04:41:45;;;;;;;9.13;6.90;;;;;;;;;;5043622;28;20228;-50
2021/03/07 04:44:10;;;;;;;7.97;6.90;;;;;;;;;;5044046;28;20222;-50
2021/03/07 04:46:36;;;;;;;9.27;7.07;;;;;;;;;;5045287;28;20842;-49
2021/03/07 04:49:01;;;;;;;11.00;7.03;;;;;;;;;;5031197;28;20300;-49
2021/03/07 04:51:26;;;;;;;9.30;6.67;;;;;;;;;;5043317;28;20690;-50
2021/03/07 04:53:52;;;;;;;14.13;6.60;;;;;;;;;;5039382;28;20182;-49
2021/03/07 04:56:17;;;;;;;8.70;6.70;;;;;;;;;;5042770;28;20670;-50
2021/03/07 04:58:45;;;;;;;9.17;7.00;;;;;;;;;;5028757;28;20272;-48
2021/03/07 05:01:10;;;;;;;10.17;6.13;;;;;;;;;;5040754;28;20287;-49
2021/03/07 05:03:35;;;;;;;11.23;6.03;;;;;;;;;;5042074;28;20228;-49
2021/03/07 05:06:01;;;;;;;8.43;6.77;;;;;;;;;;5010141;28;20210;-49
2021/03/07 05:08:29;;;;;;;10.90;6.73;;;;;;;;;;5043706;28;20196;-49
2021/03/07 05:10:55;;;;;;;9.00;5.80;;;;;;;;;;5051666;28;20230;-48
2021/03/07 05:13:21;;;;;;;7.33;5.30;;;;;;;;;;5026506;28;20225;-49
2021/03/07 05:15:46;;;;;;;10.30;5.37;;;;;;;;;;5040852;28;20218;-50
2021/03/07 05:18:11;;;;;;;10.33;5.27;;;;;;;;;;5041626;28;20194;-49
2021/03/07 05:20:37;;;;;;;7.43;4.53;;;;;;;;;;5033188;28;20265;-49
2021/03/07 05:23:02;;;;;;;6.87;4.63;;;;;;;;;;5039573;28;20196;-47
2021/03/07 05:25:27;;;;;;;6.80;4.53;;;;;;;;;;5041537;28;20225;-48
2021/03/07 05:27:53;;;;;;;6.60;4.73;;;;;;;;;;5041454;28;20387;-49
2021/03/07 05:30:19;;;;;;;5.73;4.27;;;;;;;;;;5041673;28;20712;-49
2021/03/07 05:32:44;;;;;;;6.20;4.30;;;;;;;;;;5045680;28;20537;-49
2021/03/07 05:35:10;;;;;;;6.73;4.17;;;;;;;;;;5042129;28;20685;-50
2021/03/07 05:37:35;;;;;;;6.30;3.87;;;;;;;;;;5045275;28;20256;-49
2021/03/07 05:40:01;;;;;;;5.67;4.00;;;;;;;;;;5041411;28;20726;-49
2021/03/07 05:42:27;;;;;;;8.93;4.67;;;;;;;;;;5039123;28;20186;-48
2021/03/07 05:44:53;;;;;;;5.43;4.23;;;;;;;;;;5025882;28;20795;-47
2021/03/07 05:47:18;;;;;;;7.53;4.10;;;;;;;;;;5040432;28;20194;-47
2021/03/07 05:49:43;;;;;;;4.83;3.70;;;;;;;;;;5039081;28;20198;-48
2021/03/07 05:52:09;;;;;;;6.23;4.00;;;;;;;;;;5046231;28;20216;-49
2021/03/07 05:54:36;;;;;;;6.77;3.67;;;;;;;;;;5043455;28;20730;-49
2021/03/07 05:57:02;;;;;;;6.80;4.07;;;;;;;;;;5039578;28;20282;-48
2021/03/07 05:59:30;;;;;;;6.27;4.60;;;;;;;;;;5039716;28;20190;-48
2021/03/07 06:01:55;;;;;;;4.93;3.83;;;;;;;;;;5036287;28;20188;-48
2021/03/07 06:04:20;;;;;;;7.50;4.50;;;;;;;;;;5035895;28;20194;-50
2021/03/07 06:06:46;;;;;;;6.83;4.60;;;;;;;;;;5030672;28;20186;-47
2021/03/07 06:09:21;;;;;;;5.83;4.50;;;;;;;;;;5044535;28;20185;-48
2021/03/07 06:11:46;;;;;;;4.97;3.90;;;;;;;;;;5039971;28;20253;-47
2021/03/07 06:14:23;;;;;;;6.93;4.27;;;;;;;;;;5030357;28;20193;-47
2021/03/07 06:17:02;;;;;;;7.70;4.30;;;;;;;;;;5045513;28;20247;-47
2021/03/07 06:19:28;;;;;;;6.27;4.10;;;;;;;;;;5039267;28;20186;-48
2021/03/07 06:21:54;;;;;;;6.27;3.67;;;;;;;;;;5048003;28;20198;-48
2021/03/07 06:24:34;;;;;;;5.90;4.00;;;;;;;;;;5027720;28;20197;-49
2021/03/07 06:27:11;;;;;;;7.27;4.27;;;;;;;;;;5043680;28;20272;-47
2021/03/07 06:29:38;;;;;;;7.10;3.50;;;;;;;;;;5047026;28;20709;-47
2021/03/07 06:32:16;;;;;;;5.47;3.53;;;;;;;;;;5045239;28;20222;-49
2021/03/07 06:34:45;;;;;;;8.50;3.97;;;;;;;;;;5047083;28;20217;-51
2021/03/07 06:37:11;;;;;;;4.17;3.40;;;;;;;;;;5041781;28;20193;-49
2021/03/07 06:39:37;;;;;;;5.80;3.93;;;;;;;;;;5040457;28;20205;-50
2021/03/07 06:42:07;;;;;;;5.57;3.60;;;;;;;;;;5045330;28;20186;-50
2021/03/07 06:44:33;;;;;;;7.03;3.53;;;;;;;;;;5055174;28;20734;-48
2021/03/07 06:47:12;;;;;;;4.23;3.20;;;;;;;;;;5038694;28;20251;-52
2021/03/07 06:49:38;;;;;;;7.00;3.40;;;;;;;;;;5039966;28;20719;-48
2021/03/07 06:52:16;;;;;;;5.00;3.47;;;;;;;;;;5047677;28;20210;-47
2021/03/07 06:54:43;;;;;;;9.70;3.73;;;;;;;;;;5037408;28;20288;-49
2021/03/07 06:57:09;;;;;;;6.20;3.77;;;;;;;;;;5046281;28;20200;-50
2021/03/07 06:59:35;;;;;;;7.43;3.53;;;;;;;;;;5041488;28;20194;-47
2021/03/07 07:02:00;;;;;;;5.63;3.80;;;;;;;;;;5042130;28;20189;-47
2021/03/07 07:04:40;;;;;;;5.90;3.77;;;;;;;;;;5043373;28;20274;-47
2021/03/07 07:07:07;;;;;;;7.47;3.70;;;;;;;;;;5043823;28;20190;-49
2021/03/07 07:09:32;;;;;;;6.63;3.50;;;;;;;;;;5046089;28;20557;-48
2021/03/07 07:11:58;;;;;;;8.37;3.33;;;;;;;;;;5038485;28;20213;-47
2021/03/07 07:14:43;;;;;;;6.23;3.43;;;;;;;;;;5040724;28;20221;-48
2021/03/07 07:17:16;;;;;;;4.67;3.30;;;;;;;;;;5039458;28;20222;-47
2021/03/07 07:19:43;;;;;;;8.17;3.80;;;;;;;;;;5039631;28;20209;-47
2021/03/07 07:22:13;;;;;;;5.90;3.30;;;;;;;;;;5045618;28;20198;-46
2021/03/07 07:24:43;;;;;;;5.80;3.47;;;;;;;;;;5041624;28;20513;-48
2021/03/07 07:27:11;;;;;;;7.13;4.23;;;;;;;;;;5043438;28;20280;-49
2021/03/07 07:29:38;;;;;;;6.97;3.70;;;;;;;;;;5045797;28;20256;-49
2021/03/07 07:32:22;;;;;;;6.17;3.83;;;;;;;;;;5023645;28;20207;-48
2021/03/07 07:34:54;;;;;;;5.10;3.53;;;;;;;;;;5044203;28;20209;-51
2021/03/07 07:37:24;;;;;;;5.17;3.30;;;;;;;;;;5040894;28;20221;-50
2021/03/07 07:39:54;;;;;;;6.57;3.73;;;;;;;;;;5044760;28;20201;-48
2021/03/07 07:42:25;;;;;;;7.10;3.50;;;;;;;;;;5034556;28;20182;-48
2021/03/07 07:44:52;;;;;;;5.83;3.27;;;;;;;;;;5035885;28;20264;-50
2021/03/07 07:47:18;;;;;;;6.50;3.73;;;;;;;;;;5044983;28;20638;-46
2021/03/07 07:49:50;;;;;;;4.20;3.30;;;;;;;;;;5018949;28;20201;-48
2021/03/07 07:52:25;;;;;;;7.67;3.57;;;;;;;;;;5025329;28;20248;-53
2021/03/07 07:54:55;;;;;;;6.00;3.80;;;;;;;;;;5047404;28;20706;-49
2021/03/07 07:57:36;;;;;;;9.33;4.17;;;;;;;;;;5042379;28;20186;-48
2021/03/07 08:00:08;;;;;;;8.17;4.67;;;;;;;;;;5035453;28;20273;-47
2021/03/07 08:02:42;;;;;;;6.37;4.00;;;;;;;;;;5023079;28;20183;-48
2021/03/07 08:05:19;;;;;;;6.90;3.60;;;;;;;;;;5025425;28;20213;-53
2021/03/07 08:08:10;;;;;;;9.17;3.97;;;;;;;;;;5037987;28;20186;-49
2021/03/07 08:10:51;;;;;;;6.10;3.47;;;;;;;;;;5023827;28;20311;-48
2021/03/07 08:13:28;;;;;;;4.70;3.43;;;;;;;;;;5041088;28;20205;-49
2021/03/07 08:15:55;;;;;;;8.57;3.97;;;;;;;;;;5040278;28;20208;-48
2021/03/07 08:18:22;;;;;;;5.50;3.50;;;;;;;;;;5036578;28;20187;-48
2021/03/07 08:20:47;;;;;;;6.83;3.40;;;;;;;;;;5041471;28;20539;-47
2021/03/07 08:23:14;;;;;;;5.67;3.60;;;;;;;;;;5044691;28;20277;-48
2021/03/07 08:25:51;;;;;;;7.53;3.50;;;;;;;;;;5042186;28;20217;-49
2021/03/07 08:28:25;;;;;;;5.37;3.60;;;;;;;;;;5038335;28;20220;-47
2021/03/07 08:31:20;;;;;;;7.53;3.57;;;;;;;;;;5036755;28;20224;-48
2021/03/07 08:33:47;;;;;;;6.47;3.50;;;;;;;;;;5039616;28;20279;-48
2021/03/07 08:36:24;;;;;;;4.03;2.60;;;;;;;;;;5038505;28;20251;-49
2021/03/07 08:41:31;;;;;;;5.73;2.70;;;;;;;;;;5041569;28;20203;-48
2021/03/07 08:43:57;;;;;;;6.20;2.47;;;;;;;;;;5040009;28;20620;-48
2021/03/07 08:46:25;;;;;;;4.83;2.20;;;;;;;;;;5038082;28;20210;-47
2021/03/07 08:48:54;;;;;;;2.10;1.90;;;;;;;;;;5036816;28;20193;-47
2021/03/07 08:51:29;;;;;;;4.40;2.20;;;;;;;;;;5041685;28;20212;-46
2021/03/07 08:54:00;;;;;;;4.27;2.00;;;;;;;;;;5026058;28;20676;-47
2021/03/07 08:56:28;;;;;;;4.27;2.23;;;;;;;;;;5042793;28;20732;-48
2021/03/07 08:58:54;;;;;;;5.10;2.07;;;;;;;;;;5037051;28;20186;-49
2021/03/07 09:01:20;;;;;;;3.90;2.40;;;;;;;;;;5039498;28;20186;-47
2021/03/07 09:03:52;;;;;;;3.23;1.90;;;;;;;;;;5040802;28;20189;-47
2021/03/07 09:06:18;;;;;;;3.43;2.00;;;;;;;;;;5037074;28;20718;-50
2021/03/07 09:08:43;;;;;;;2.70;1.90;;;;;;;;;;5027422;28;20185;-46
2021/03/07 09:11:09;;;;;;;4.10;1.80;;;;;;;;;;5040616;28;20206;-48
2021/03/07 09:13:46;;;;;;;3.97;1.90;;;;;;;;;;5038685;28;20190;-49
2021/03/07 09:16:12;;;;;;;1.90;1.57;;;;;;;;;;5041964;28;20198;-48
2021/03/07 09:18:40;;;;;;;2.43;2.00;;;;;;;;;;5033373;28;20182;-48
2021/03/07 09:21:11;;;;;;;2.73;1.97;;;;;;;;;;5028658;28;20196;-46
2021/03/07 09:23:47;;;;;;;7.60;2.10;;;;;;;;;;5032362;28;20185;-52
2021/03/07 09:26:14;;;;;;;4.20;2.13;;;;;;;;;;5030135;28;21790;-47
2021/03/07 09:28:42;;;;;;;4.57;1.93;;;;;;;;;;5031427;28;20202;-48
2021/03/07 09:31:31;;;;;;;2.77;1.67;;;;;;;;;;5041753;28;20206;-50
2021/03/07 09:33:59;;;;;;;2.80;1.60;;;;;;;;;;5030394;28;20256;-48
2021/03/07 09:36:25;;;;;;;3.50;1.70;;;;;;;;;;5039175;28;20685;-48
2021/03/07 09:38:53;;;;;;;2.83;1.70;;;;;;;;;;5039220;28;20182;-47
2021/03/07 09:41:34;;;;;;;5.13;1.77;;;;;;;;;;5042103;28;20673;-46
2021/03/07 09:44:01;;;;;;;2.10;1.90;;;;;;;;;;5042839;28;20271;-47
2021/03/07 09:46:27;;;;;;;6.30;1.77;;;;;;;;;;5040149;28;20256;-47
2021/03/07 09:49:06;;;;;;;2.47;1.80;;;;;;;;;;5029865;28;20187;-47
2021/03/07 09:51:35;;;;;;;3.73;1.80;;;;;;;;;;5045974;28;20205;-46
2021/03/07 09:54:00;;;;;;;4.27;1.90;;;;;;;;;;5045361;28;20189;-49
2021/03/07 09:56:31;;;;;;;3.03;1.70;;;;;;;;;;5040821;28;20202;-50
2021/03/07 09:59:18;;;;;;;2.20;1.63;;;;;;;;;;5041492;28;20190;-50
2021/03/07 10:02:01;;;;;;;3.63;1.83;;;;;;;;;;5041737;28;20195;-49
2021/03/07 10:05:11;;;;;;;2.43;1.73;;;;;;;;;;5016919;28;20174;-49
2021/03/07 10:07:36;;;;;;;3.80;2.17;;;;;;;;;;5043793;28;20289;-48
2021/03/07 10:10:15;;;;;;;2.43;1.90;;;;;;;;;;5044656;28;20272;-50
2021/03/07 10:12:40;;;;;;;3.40;1.77;;;;;;;;;;5025992;28;20197;-49
2021/03/07 10:15:08;;;;;;;2.73;2.17;;;;;;;;;;5043983;28;20897;-50
2021/03/07 10:17:42;;;;;;;6.03;1.87;;;;;;;;;;5046667;28;20182;-47
2021/03/07 10:20:11;;;;;;;4.47;2.03;;;;;;;;;;5044204;28;20247;-49
2021/03/07 10:22:42;;;;;;;3.10;2.00;;;;;;;;;;5045080;28;20197;-47
2021/03/07 10:25:20;;;;;;;2.63;1.67;;;;;;;;;;5041776;28;20221;-48
2021/03/07 10:27:54;;;;;;;4.97;2.27;;;;;;;;;;5035804;28;20194;-48
2021/03/07 10:30:31;;;;;;;4.23;2.93;;;;;;;;;;5040230;28;20680;-48
2021/03/07 10:33:10;;;;;;;6.13;2.77;;;;;;;;;;5046478;28;20185;-48
2021/03/07 10:35:56;;;;;;;5.03;2.20;;;;;;;;;;5037559;28;20217;-48
2021/03/07 10:38:22;;;;;;;2.67;1.80;;;;;;;;;;5043636;28;20661;-47
2021/03/07 10:40:47;;;;;;;3.77;1.90;;;;;;;;;;5042959;28;20194;-50
2021/03/07 10:43:13;;;;;;;4.07;1.90;;;;;;;;;;5041756;28;20183;-48
2021/03/07 10:45:38;;;;;;;2.57;1.90;;;;;;;;;;5045422;28;20213;-48
2021/03/07 10:48:06;;;;;;;6.60;2.10;;;;;;;;;;5044446;28;20221;-47
2021/03/07 10:50:31;;;;;;;3.43;1.87;;;;;;;;;;5035214;28;20233;-49
2021/03/07 10:52:57;;;;;;;2.43;1.90;;;;;;;;;;5040886;28;20867;-48
2021/03/07 10:55:23;;;;;;;2.73;2.20;;;;;;;;;;5044835;28;20610;-48
2021/03/07 10:57:48;;;;;;;3.57;1.87;;;;;;;;;;5030360;28;20189;-49
2021/03/07 11:00:14;;;;;;;7.40;2.37;;;;;;;;;;5039426;28;20187;-48
2021/03/07 11:02:43;;;;;;;4.63;2.10;;;;;;;;;;5048950;28;20261;-48
2021/03/07 11:05:09;;;;;;;5.47;2.27;;;;;;;;;;5043229;28;20473;-49
2021/03/07 11:07:35;;;;;;;5.10;1.90;;;;;;;;;;5035384;28;20269;-49
2021/03/07 11:10:00;;;;;;;3.90;2.10;;;;;;;;;;5034476;28;20658;-51
2021/03/07 11:12:25;;;;;;;2.50;2.20;;;;;;;;;;5039902;28;20207;-48
2021/03/07 11:14:51;;;;;;;3.93;2.17;;;;;;;;;;5046990;28;20229;-48
2021/03/07 11:17:16;;;;;;;7.60;2.57;;;;;;;;;;5044477;28;20209;-48
2021/03/07 11:19:41;;;;;;;2.23;2.00;;;;;;;;;;5047513;28;20208;-49
2021/03/07 11:22:07;;;;;;;3.40;2.20;;;;;;;;;;5045988;28;20190;-51
2021/03/07 11:24:32;;;;;;;2.70;2.23;;;;;;;;;;5043157;28;20650;-48
2021/03/07 11:26:57;;;;;;;6.33;2.83;;;;;;;;;;5044577;28;20194;-47
2021/03/07 11:29:22;;;;;;;5.23;2.40;;;;;;;;;;5021736;28;20191;-49
2021/03/07 11:31:48;;;;;;;6.70;2.70;;;;;;;;;;5042408;28;20645;-50
2021/03/07 11:34:13;;;;;;;5.87;3.00;;;;;;;;;;5044723;28;20665;-49
2021/03/07 11:36:38;;;;;;;4.70;2.70;;;;;;;;;;5039925;28;20214;-47
2021/03/07 11:39:04;;;;;;;5.90;2.30;;;;;;;;;;5046108;28;20269;-53
2021/03/07 11:41:32;;;;;;;4.70;2.80;;;;;;;;;;5044249;28;20674;-48
2021/03/07 11:43:57;;;;;;;6.10;2.40;;;;;;;;;;5043930;28;20189;-49
2021/03/07 11:46:23;;;;;;;4.37;2.53;;;;;;;;;;5044088;28;20851;-48
2021/03/07 11:48:48;;;;;;;3.93;2.63;;;;;;;;;;5029678;28;20205;-49
2021/03/07 11:51:14;;;;;;;6.30;2.93;;;;;;;;;;5027396;28;20582;-47
2021/03/07 11:53:39;;;;;;;4.23;2.37;;;;;;;;;;5034035;28;20592;-48
2021/03/07 11:56:04;;;;;;;4.00;2.40;;;;;;;;;;5029985;28;20202;-47
2021/03/07 11:58:30;;;;;;;3.07;2.30;;;;;;;;;;5043810;28;20610;-49
2021/03/07 12:00:55;;;;;;;6.27;2.70;;;;;;;;;;5043199;28;20797;-46
2021/03/07 12:03:20;;;;;;;2.60;2.40;;;;;;;;;;5048130;28;20178;-47
2021/03/07 12:05:46;;;;;;;4.60;2.70;;;;;;;;;;5027039;28;20214;-48
2021/03/07 12:08:11;;;;;;;3.53;2.60;;;;;;;;;;5045567;28;20182;-50
2021/03/07 12:10:36;;;;;;;4.60;3.23;;;;;;;;;;5044884;28;20258;-47
2021/03/07 12:13:03;;;;;;;4.50;2.57;;;;;;;;;;5025426;28;20555;-46
2021/03/07 12:15:28;;;;;;;7.40;3.00;;;;;;;;;;5039564;28;20254;-48
2021/03/07 12:17:53;;;;;;;5.97;2.90;;;;;;;;;;5042198;28;20223;-49
2021/03/07 12:20:19;;;;;;;6.93;3.30;;;;;;;;;;5028520;28;20185;-46
2021/03/07 12:22:46;;;;;;;6.23;3.37;;;;;;;;;;5047289;28;20192;-48
2021/03/07 12:25:11;;;;;;;6.77;3.07;;;;;;;;;;5042908;28;20239;-48
2021/03/07 12:27:37;;;;;;;5.17;2.90;;;;;;;;;;5041433;28;20553;-49
2021/03/07 12:30:04;;;;;;;6.10;3.10;;;;;;;;;;5048054;28;20213;-48
2021/03/07 12:32:29;;;;;;;4.80;3.90;;;;;;;;;;5041855;28;20301;-49
2021/03/07 12:34:54;;;;;;;6.27;3.43;;;;;;;;;;5045552;28;20289;-48
2021/03/07 12:37:19;;;;;;;5.17;3.23;;;;;;;;;;5047893;28;20635;-49
2021/03/07 12:39:45;;;;;;;4.97;3.40;;;;;;;;;;5045403;28;20269;-51
2021/03/07 12:42:10;;;;;;;7.50;3.00;;;;;;;;;;5050210;28;20194;-49
2021/03/07 12:44:35;;;;;;;4.57;3.17;;;;;;;;;;5048042;28;20201;-49
2021/03/07 12:47:01;;;;;;;3.50;3.20;;;;;;;;;;5040593;28;20177;-48
2021/03/07 12:49:26;;;;;;;6.67;3.60;;;;;;;;;;5043598;28;20921;-48
2021/03/07 12:51:51;;;;;;;5.17;3.10;;;;;;;;;;5041141;28;20685;-48
2021/03/07 12:54:17;;;;;;;6.00;3.30;;;;;;;;;;5043869;28;20189;-49
2021/03/07 12:56:42;;;;;;;4.63;3.40;;;;;;;;;;5034035;28;20252;-50
2021/03/07 12:59:07;;;;;;;5.07;3.47;;;;;;;;;;5040842;28;20260;-48
2021/03/07 13:01:32;;;;;;;4.77;3.57;;;;;;;;;;5043657;28;20194;-51
2021/03/07 13:03:58;;;;;;;3.60;2.60;;;;;;;;;;5045350;28;20217;-50
2021/03/07 13:06:23;;;;;;;4.43;3.60;;;;;;;;;;5040350;28;20241;-48
2021/03/07 13:08:48;;;;;;;6.63;3.93;;;;;;;;;;5043428;28;20205;-49
2021/03/07 13:11:14;;;;;;;4.57;3.23;;;;;;;;;;5043136;28;20221;-47
2021/03/07 13:13:39;;;;;;;5.37;3.63;;;;;;;;;;5026502;28;20789;-49
2021/03/07 13:16:05;;;;;;;5.00;3.80;;;;;;;;;;5043415;28;20214;-48
2021/03/07 13:18:30;;;;;;;7.83;4.30;;;;;;;;;;5043056;28;20197;-48
2021/03/07 13:20:55;;;;;;;7.80;5.17;;;;;;;;;;5026468;28;20957;-50
2021/03/07 13:23:21;;;;;;;5.73;4.37;;;;;;;;;;5045788;28;20181;-49
2021/03/07 13:25:49;;;;;;;7.23;4.43;;;;;;;;;;5043230;28;20217;-50
2021/03/07 13:28:16;;;;;;;6.13;3.93;;;;;;;;;;5017414;28;20302;-49
2021/03/07 13:30:41;;;;;;;6.07;4.70;;;;;;;;;;5030818;28;20210;-49
2021/03/07 13:33:07;;;;;;;5.73;4.20;;;;;;;;;;5047228;28;20732;-48
2021/03/07 13:35:35;;;;;;;7.07;4.17;;;;;;;;;;5030390;28;20221;-50
2021/03/07 13:38:00;;;;;;;6.03;4.00;;;;;;;;;;5031664;28;20234;-49
2021/03/07 13:40:25;;;;;;;7.23;4.07;;;;;;;;;;5046995;28;20218;-50
2021/03/07 13:42:51;;;;;;;7.40;3.73;;;;;;;;;;5045606;28;20205;-49
2021/03/07 13:45:16;;;;;;;4.60;3.70;;;;;;;;;;5044954;28;20293;-47
2021/03/07 13:47:43;;;;;;;6.80;4.60;;;;;;;;;;5041433;28;20658;-50
2021/03/07 13:50:09;;;;;;;9.33;4.83;;;;;;;;;;5032654;28;20286;-49
2021/03/07 13:52:35;;;;;;;6.93;4.67;;;;;;;;;;5043987;28;20246;-49
2021/03/07 13:55:00;;;;;;;6.50;4.30;;;;;;;;;;5047339;28;20259;-49
2021/03/07 13:57:25;;;;;;;6.43;4.67;;;;;;;;;;5048241;28;20185;-50
2021/03/07 13:59:50;;;;;;;6.57;4.70;;;;;;;;;;5035526;28;20277;-49
2021/03/07 14:02:16;;;;;;;8.50;4.87;;;;;;;;;;5033071;28;20193;-50
2021/03/07 14:04:41;;;;;;;7.67;4.77;;;;;;;;;;5044011;28;20345;-55
2021/03/07 14:07:06;;;;;;;6.63;5.43;;;;;;;;;;5045320;28;20193;-49
2021/03/07 14:09:31;;;;;;;10.47;5.53;;;;;;;;;;5042394;28;20191;-46
2021/03/07 14:11:57;;;;;;;6.33;5.73;;;;;;;;;;5028443;28;20256;-49
2021/03/07 14:14:22;;;;;;;9.27;5.40;;;;;;;;;;5032561;28;20263;-50
2021/03/07 14:16:47;;;;;;;5.90;5.20;;;;;;;;;;5044484;28;20605;-53
2021/03/07 14:19:12;;;;;;;7.53;4.67;;;;;;;;;;5043629;28;20190;-47
2021/03/07 14:21:38;;;;;;;5.00;4.00;;;;;;;;;;5047155;28;20204;-50
2021/03/07 14:24:03;;;;;;;6.90;4.03;;;;;;;;;;5048716;28;20220;-49
2021/03/07 14:26:28;;;;;;;4.80;4.27;;;;;;;;;;5032280;28;20252;-50
2021/03/07 14:28:54;;;;;;;7.43;4.47;;;;;;;;;;5045621;28;20201;-50
2021/03/07 14:31:19;;;;;;;7.10;4.63;;;;;;;;;;5031267;28;20247;-48
2021/03/07 14:33:44;;;;;;;7.47;4.70;;;;;;;;;;5044790;28;20186;-50
2021/03/07 14:36:10;;;;;;;5.97;4.37;;;;;;;;;;5042322;28;20213;-47
2021/03/07 14:38:35;;;;;;;7.13;4.80;;;;;;;;;;5031270;28;20844;-47
2021/03/07 14:41:01;;;;;;;8.37;5.07;;;;;;;;;;5031991;28;20211;-50
2021/03/07 14:43:26;;;;;;;6.27;4.23;;;;;;;;;;5045625;28;20581;-50
2021/03/07 14:45:51;;;;;;;7.93;4.83;;;;;;;;;;5044731;28;20225;-47
2021/03/07 14:48:16;;;;;;;5.33;4.30;;;;;;;;;;5047372;28;20182;-49